sensor_id;sensor_type;location;lat;lon;timestamp;pressure;altitude;pressure_sealevel;temperature;humidity
29247;BME280;16272;48.188;9.964;2024-03-23T00:56:04;95210.50;;;6.60;79.95
29247;BME280;16272;48.188;9.964;2024-03-23T00:58:30;95212.44;;;6.68;78.84
29247;BME280;16272;48.188;9.964;2024-03-23T01:00:55;95199.34;;;6.76;78.51
29247;BME280;16272;48.188;9.964;2024-03-23T01:03:20;95191.63;;;6.55;79.52
29247;BME280;16272;48.188;9.964;2024-03-23T01:05:46;95185.25;;;6.58;79.62
29247;BME280;16272;48.188;9.964;2024-03-23T01:08:11;95188.41;;;6.61;79.54
29247;BME280;16272;48.188;9.964;2024-03-23T01:10:36;95188.81;;;6.76;79.08
29247;BME280;16272;48.188;9.964;2024-03-23T01:13:01;95190.44;;;6.87;79.07
29247;BME280;16272;48.188;9.964;2024-03-23T01:15:27;95187.97;;;6.76;78.84
29247;BME280;16272;48.188;9.964;2024-03-23T01:17:52;95181.16;;;6.73;79.11
29247;BME280;16272;48.188;9.964;2024-03-23T01:20:18;95181.50;;;6.41;80.69
29247;BME280;16272;48.188;9.964;2024-03-23T01:22:43;95172.72;;;6.60;79.93
29247;BME280;16272;48.188;9.964;2024-03-23T01:25:08;95174.34;;;6.80;78.75
29247;BME280;16272;48.188;9.964;2024-03-23T01:27:34;95171.50;;;6.92;77.65
29247;BME280;16272;48.188;9.964;2024-03-23T01:29:59;95172.09;;;6.95;77.62
29247;BME280;16272;48.188;9.964;2024-03-23T01:32:25;95174.19;;;7.20;76.29
29247;BME280;16272;48.188;9.964;2024-03-23T01:34:50;95173.22;;;7.48;74.70
29247;BME280;16272;48.188;9.964;2024-03-23T01:37:15;95170.31;;;7.69;74.26
29247;BME280;16272;48.188;9.964;2024-03-23T01:39:40;95171.41;;;7.67;74.01
29247;BME280;16272;48.188;9.964;2024-03-23T01:42:06;95168.75;;;7.49;74.77
29247;BME280;16272;48.188;9.964;2024-03-23T01:44:31;95165.59;;;7.63;74.13
29247;BME280;16272;48.188;9.964;2024-03-23T01:46:56;95165.28;;;7.21;75.22
29247;BME280;16272;48.188;9.964;2024-03-23T01:49:22;95157.84;;;7.06;74.92
29247;BME280;16272;48.188;9.964;2024-03-23T01:51:47;95154.00;;;7.28;74.58
29247;BME280;16272;48.188;9.964;2024-03-23T01:54:13;95151.41;;;7.46;74.71
29247;BME280;16272;48.188;9.964;2024-03-23T01:56:38;95160.78;;;7.31;74.30
29247;BME280;16272;48.188;9.964;2024-03-23T01:59:05;95157.09;;;7.24;75.01
29247;BME280;16272;48.188;9.964;2024-03-23T02:01:31;95159.34;;;7.18;75.13
29247;BME280;16272;48.188;9.964;2024-03-23T02:03:57;95154.41;;;7.51;74.35
29247;BME280;16272;48.188;9.964;2024-03-23T02:06:24;95153.19;;;7.46;74.47
29247;BME280;16272;48.188;9.964;2024-03-23T02:08:49;95150.41;;;7.47;73.90
29247;BME280;16272;48.188;9.964;2024-03-23T02:11:15;95137.25;;;7.38;74.99
29247;BME280;16272;48.188;9.964;2024-03-23T02:13:40;95138.00;;;7.30;75.87
29247;BME280;16272;48.188;9.964;2024-03-23T02:16:06;95134.56;;;7.20;76.06
29247;BME280;16272;48.188;9.964;2024-03-23T02:18:32;95128.38;;;7.57;75.90
29247;BME280;16272;48.188;9.964;2024-03-23T02:20:58;95121.56;;;8.08;74.79
29247;BME280;16272;48.188;9.964;2024-03-23T02:23:23;95114.81;;;7.87;74.97
29247;BME280;16272;48.188;9.964;2024-03-23T02:25:49;95112.88;;;8.16;75.14
29247;BME280;16272;48.188;9.964;2024-03-23T02:28:15;95094.72;;;8.21;74.21
29247;BME280;16272;48.188;9.964;2024-03-23T02:30:40;95088.22;;;8.33;74.38
29247;BME280;16272;48.188;9.964;2024-03-23T02:33:05;95082.91;;;8.51;73.57
29247;BME280;16272;48.188;9.964;2024-03-23T02:35:30;95079.63;;;8.39;74.32
29247;BME280;16272;48.188;9.964;2024-03-23T02:37:56;95072.16;;;8.53;73.84
29247;BME280;16272;48.188;9.964;2024-03-23T02:40:23;95074.31;;;8.57;74.57
29247;BME280;16272;48.188;9.964;2024-03-23T02:42:48;95077.63;;;8.86;72.05
29247;BME280;16272;48.188;9.964;2024-03-23T02:45:14;95066.06;;;8.60;73.35
29247;BME280;16272;48.188;9.964;2024-03-23T02:47:39;95059.09;;;8.51;73.52
29247;BME280;16272;48.188;9.964;2024-03-23T02:50:05;95049.91;;;8.72;72.98
29247;BME280;16272;48.188;9.964;2024-03-23T02:52:30;95042.94;;;8.62;72.58
29247;BME280;16272;48.188;9.964;2024-03-23T02:54:56;95041.69;;;8.83;73.08
29247;BME280;16272;48.188;9.964;2024-03-23T02:57:21;95040.69;;;8.84;73.10
29247;BME280;16272;48.188;9.964;2024-03-23T02:59:47;95043.81;;;8.45;74.87
29247;BME280;16272;48.188;9.964;2024-03-23T03:02:13;95040.41;;;8.95;73.09
29247;BME280;16272;48.188;9.964;2024-03-23T03:04:39;95034.91;;;9.48;70.29
29247;BME280;16272;48.188;9.964;2024-03-23T03:07:04;95034.25;;;9.79;68.69
29247;BME280;16272;48.188;9.964;2024-03-23T03:09:30;95043.38;;;9.60;70.41
29247;BME280;16272;48.188;9.964;2024-03-23T03:11:55;95032.28;;;9.72;68.93
29247;BME280;16272;48.188;9.964;2024-03-23T03:14:20;95033.28;;;9.80;68.48
29247;BME280;16272;48.188;9.964;2024-03-23T03:16:46;95008.06;;;9.84;68.67
29247;BME280;16272;48.188;9.964;2024-03-23T03:19:11;95007.72;;;9.54;70.93
29247;BME280;16272;48.188;9.964;2024-03-23T03:21:36;95001.59;;;9.53;70.67
29247;BME280;16272;48.188;9.964;2024-03-23T03:24:02;94992.50;;;9.56;70.21
29247;BME280;16272;48.188;9.964;2024-03-23T03:26:27;95008.25;;;9.57;70.99
29247;BME280;16272;48.188;9.964;2024-03-23T03:28:52;95006.41;;;9.42;70.04
29247;BME280;16272;48.188;9.964;2024-03-23T03:31:18;95004.75;;;9.65;70.41
29247;BME280;16272;48.188;9.964;2024-03-23T03:33:43;95002.75;;;9.67;69.02
29247;BME280;16272;48.188;9.964;2024-03-23T03:36:09;95007.06;;;9.60;69.99
29247;BME280;16272;48.188;9.964;2024-03-23T03:38:35;94993.66;;;9.78;68.71
29247;BME280;16272;48.188;9.964;2024-03-23T03:41:01;94997.81;;;9.89;68.29
29247;BME280;16272;48.188;9.964;2024-03-23T03:43:26;94989.16;;;9.79;68.17
29247;BME280;16272;48.188;9.964;2024-03-23T03:45:56;94982.22;;;9.94;67.87
29247;BME280;16272;48.188;9.964;2024-03-23T03:48:21;94985.38;;;9.89;68.55
29247;BME280;16272;48.188;9.964;2024-03-23T03:50:47;94983.53;;;9.82;67.92
29247;BME280;16272;48.188;9.964;2024-03-23T03:53:12;94972.56;;;10.01;68.19
29247;BME280;16272;48.188;9.964;2024-03-23T03:55:37;94979.41;;;9.96;68.10
29247;BME280;16272;48.188;9.964;2024-03-23T03:58:03;94975.19;;;10.26;66.19
29247;BME280;16272;48.188;9.964;2024-03-23T04:00:30;94963.63;;;10.02;67.77
29247;BME280;16272;48.188;9.964;2024-03-23T04:02:55;94971.28;;;9.97;68.13
29247;BME280;16272;48.188;9.964;2024-03-23T04:05:20;94968.22;;;10.41;66.25
29247;BME280;16272;48.188;9.964;2024-03-23T04:07:46;94970.50;;;10.53;64.95
29247;BME280;16272;48.188;9.964;2024-03-23T04:10:11;94978.63;;;10.51;66.25
29247;BME280;16272;48.188;9.964;2024-03-23T04:12:37;94967.16;;;10.51;65.63
29247;BME280;16272;48.188;9.964;2024-03-23T04:15:02;94973.47;;;10.58;66.21
29247;BME280;16272;48.188;9.964;2024-03-23T04:17:29;94964.13;;;10.62;66.82
29247;BME280;16272;48.188;9.964;2024-03-23T04:20:00;94958.50;;;10.65;65.00
29247;BME280;16272;48.188;9.964;2024-03-23T04:22:26;94957.59;;;10.41;65.91
29247;BME280;16272;48.188;9.964;2024-03-23T04:24:58;94955.53;;;10.60;65.33
29247;BME280;16272;48.188;9.964;2024-03-23T04:27:23;94954.91;;;10.50;64.68
29247;BME280;16272;48.188;9.964;2024-03-23T04:29:49;94963.72;;;10.42;65.56
29247;BME280;16272;48.188;9.964;2024-03-23T04:32:15;94960.84;;;10.60;64.14
29247;BME280;16272;48.188;9.964;2024-03-23T04:34:40;94954.91;;;10.50;65.34
29247;BME280;16272;48.188;9.964;2024-03-23T04:37:05;94941.22;;;10.69;64.79
29247;BME280;16272;48.188;9.964;2024-03-23T04:39:31;94949.84;;;10.71;63.94
29247;BME280;16272;48.188;9.964;2024-03-23T04:41:56;94946.91;;;10.58;64.04
29247;BME280;16272;48.188;9.964;2024-03-23T04:44:21;94938.19;;;10.24;65.68
29247;BME280;16272;48.188;9.964;2024-03-23T04:46:47;94945.66;;;10.29;65.54
29247;BME280;16272;48.188;9.964;2024-03-23T04:49:12;94930.63;;;10.61;64.27
29247;BME280;16272;48.188;9.964;2024-03-23T04:51:37;94916.34;;;10.62;64.54
29247;BME280;16272;48.188;9.964;2024-03-23T04:54:03;94907.47;;;9.90;67.75
29247;BME280;16272;48.188;9.964;2024-03-23T04:56:29;94902.31;;;9.97;67.58
29247;BME280;16272;48.188;9.964;2024-03-23T04:58:54;94909.91;;;10.08;67.20
29247;BME280;16272;48.188;9.964;2024-03-23T05:01:20;94891.88;;;9.87;66.93
29247;BME280;16272;48.188;9.964;2024-03-23T05:03:45;94890.50;;;10.00;67.12
29247;BME280;16272;48.188;9.964;2024-03-23T05:06:10;94891.00;;;9.95;66.83
29247;BME280;16272;48.188;9.964;2024-03-23T05:08:35;94891.03;;;9.87;67.44
29247;BME280;16272;48.188;9.964;2024-03-23T05:11:01;94892.56;;;9.73;68.11
29247;BME280;16272;48.188;9.964;2024-03-23T05:13:26;94884.91;;;9.86;67.57
29247;BME280;16272;48.188;9.964;2024-03-23T05:15:55;94878.16;;;9.67;68.32
29247;BME280;16272;48.188;9.964;2024-03-23T05:18:21;94864.50;;;9.95;67.87
29247;BME280;16272;48.188;9.964;2024-03-23T05:20:46;94867.47;;;10.08;67.83
29247;BME280;16272;48.188;9.964;2024-03-23T05:23:11;94861.06;;;10.26;67.12
29247;BME280;16272;48.188;9.964;2024-03-23T05:25:37;94846.94;;;10.42;67.03
29247;BME280;16272;48.188;9.964;2024-03-23T05:28:03;94844.44;;;10.40;67.08
29247;BME280;16272;48.188;9.964;2024-03-23T05:30:28;94844.78;;;10.37;66.52
29247;BME280;16272;48.188;9.964;2024-03-23T05:32:54;94836.34;;;10.65;65.79
29247;BME280;16272;48.188;9.964;2024-03-23T05:35:19;94824.38;;;10.69;65.58
29247;BME280;16272;48.188;9.964;2024-03-23T05:37:44;94826.59;;;10.80;65.89
29247;BME280;16272;48.188;9.964;2024-03-23T05:40:10;94829.88;;;10.91;64.37
29247;BME280;16272;48.188;9.964;2024-03-23T05:42:36;94826.56;;;11.12;64.91
29247;BME280;16272;48.188;9.964;2024-03-23T05:45:01;94819.50;;;11.19;65.66
29247;BME280;16272;48.188;9.964;2024-03-23T05:47:26;94827.72;;;11.09;64.70
29247;BME280;16272;48.188;9.964;2024-03-23T05:49:51;94828.50;;;10.95;65.63
29247;BME280;16272;48.188;9.964;2024-03-23T05:52:17;94815.94;;;11.12;64.44
29247;BME280;16272;48.188;9.964;2024-03-23T05:54:42;94809.13;;;11.09;64.97
29247;BME280;16272;48.188;9.964;2024-03-23T05:57:09;94810.53;;;10.97;64.97
29247;BME280;16272;48.188;9.964;2024-03-23T05:59:34;94811.72;;;11.17;64.39
29247;BME280;16272;48.188;9.964;2024-03-23T06:01:59;94825.91;;;11.25;65.20
29247;BME280;16272;48.188;9.964;2024-03-23T06:04:25;94823.81;;;10.97;65.59
29247;BME280;16272;48.188;9.964;2024-03-23T06:06:53;94826.31;;;11.21;65.12
29247;BME280;16272;48.188;9.964;2024-03-23T06:09:19;94851.00;;;11.07;64.72
29247;BME280;16272;48.188;9.964;2024-03-23T06:11:45;94853.00;;;11.28;65.59
29247;BME280;16272;48.188;9.964;2024-03-23T06:14:10;94838.72;;;10.83;69.24
29247;BME280;16272;48.188;9.964;2024-03-23T06:16:35;94856.81;;;10.56;71.29
29247;BME280;16272;48.188;9.964;2024-03-23T06:19:00;94848.03;;;10.79;70.80
29247;BME280;16272;48.188;9.964;2024-03-23T06:21:28;94845.38;;;10.79;71.05
29247;BME280;16272;48.188;9.964;2024-03-23T06:23:54;94838.94;;;10.73;71.72
29247;BME280;16272;48.188;9.964;2024-03-23T06:26:20;94835.34;;;10.66;71.64
29247;BME280;16272;48.188;9.964;2024-03-23T06:28:49;94824.56;;;10.68;72.60
29247;BME280;16272;48.188;9.964;2024-03-23T06:31:14;94835.13;;;10.44;73.89
29247;BME280;16272;48.188;9.964;2024-03-23T06:33:40;94838.03;;;10.26;74.36
29247;BME280;16272;48.188;9.964;2024-03-23T06:36:09;94846.06;;;10.50;74.55
29247;BME280;16272;48.188;9.964;2024-03-23T06:38:34;94856.34;;;10.44;74.75
29247;BME280;16272;48.188;9.964;2024-03-23T06:41:02;94864.00;;;10.39;75.60
29247;BME280;16272;48.188;9.964;2024-03-23T06:43:28;94874.97;;;10.28;76.96
29247;BME280;16272;48.188;9.964;2024-03-23T06:45:54;94883.63;;;10.30;77.09
29247;BME280;16272;48.188;9.964;2024-03-23T06:48:20;94908.00;;;10.34;77.38
29247;BME280;16272;48.188;9.964;2024-03-23T06:50:45;94905.34;;;10.25;78.90
29247;BME280;16272;48.188;9.964;2024-03-23T06:53:15;94931.75;;;10.19;78.97
29247;BME280;16272;48.188;9.964;2024-03-23T06:55:41;94933.81;;;9.92;78.33
29247;BME280;16272;48.188;9.964;2024-03-23T06:58:07;94950.69;;;10.07;76.77
29247;BME280;16272;48.188;9.964;2024-03-23T07:00:32;94973.59;;;9.84;77.33
29247;BME280;16272;48.188;9.964;2024-03-23T07:02:59;94979.59;;;9.53;78.58
29247;BME280;16272;48.188;9.964;2024-03-23T07:05:24;94992.50;;;9.64;78.65
29247;BME280;16272;48.188;9.964;2024-03-23T07:07:50;94988.66;;;9.34;80.90
29247;BME280;16272;48.188;9.964;2024-03-23T07:10:15;94984.88;;;9.28;82.41
29247;BME280;16272;48.188;9.964;2024-03-23T07:12:40;94982.53;;;9.25;83.50
29247;BME280;16272;48.188;9.964;2024-03-23T07:15:06;94989.16;;;9.29;83.06
29247;BME280;16272;48.188;9.964;2024-03-23T07:17:33;94995.06;;;9.07;84.65
29247;BME280;16272;48.188;9.964;2024-03-23T07:20:00;94989.63;;;9.16;84.58
29247;BME280;16272;48.188;9.964;2024-03-23T07:22:26;94997.72;;;9.15;85.18
29247;BME280;16272;48.188;9.964;2024-03-23T07:24:51;95002.53;;;9.11;85.51
29247;BME280;16272;48.188;9.964;2024-03-23T07:27:17;95011.94;;;8.97;86.17
29247;BME280;16272;48.188;9.964;2024-03-23T07:29:42;94995.59;;;9.10;85.65
29247;BME280;16272;48.188;9.964;2024-03-23T07:32:07;94997.06;;;9.05;85.47
29247;BME280;16272;48.188;9.964;2024-03-23T07:34:33;95007.84;;;9.11;85.93
29247;BME280;16272;48.188;9.964;2024-03-23T07:36:58;95028.38;;;9.17;84.66
29247;BME280;16272;48.188;9.964;2024-03-23T07:39:23;95022.22;;;9.00;85.51
29247;BME280;16272;48.188;9.964;2024-03-23T07:41:49;95015.28;;;9.16;84.65
29247;BME280;16272;48.188;9.964;2024-03-23T07:44:15;95041.44;;;9.11;84.61
29247;BME280;16272;48.188;9.964;2024-03-23T07:46:40;95029.88;;;9.12;84.60
29247;BME280;16272;48.188;9.964;2024-03-23T07:49:05;95025.84;;;8.99;85.08
29247;BME280;16272;48.188;9.964;2024-03-23T07:51:31;95039.47;;;9.21;85.19
29247;BME280;16272;48.188;9.964;2024-03-23T07:53:56;95028.56;;;9.32;85.21
29247;BME280;16272;48.188;9.964;2024-03-23T07:56:21;95033.34;;;9.20;84.04
29247;BME280;16272;48.188;9.964;2024-03-23T07:58:48;95049.25;;;9.20;83.68
29247;BME280;16272;48.188;9.964;2024-03-23T08:01:15;95077.53;;;9.04;84.39
29247;BME280;16272;48.188;9.964;2024-03-23T08:03:45;95087.06;;;8.36;81.39
29247;BME280;16272;48.188;9.964;2024-03-23T08:06:12;95088.34;;;8.05;82.99
29247;BME280;16272;48.188;9.964;2024-03-23T08:08:39;95104.81;;;7.81;83.14
29247;BME280;16272;48.188;9.964;2024-03-23T08:11:04;95129.69;;;7.43;84.15
29247;BME280;16272;48.188;9.964;2024-03-23T08:13:30;95120.06;;;7.51;83.48
29247;BME280;16272;48.188;9.964;2024-03-23T08:15:57;95124.53;;;7.69;81.21
29247;BME280;16272;48.188;9.964;2024-03-23T08:18:22;95129.22;;;7.75;81.33
29247;BME280;16272;48.188;9.964;2024-03-23T08:20:58;95130.97;;;7.84;81.30
29247;BME280;16272;48.188;9.964;2024-03-23T08:23:27;95144.31;;;7.83;81.09
29247;BME280;16272;48.188;9.964;2024-03-23T08:26:00;95158.22;;;8.03;79.73
29247;BME280;16272;48.188;9.964;2024-03-23T08:28:26;95150.06;;;8.14;78.94
29247;BME280;16272;48.188;9.964;2024-03-23T08:30:52;95162.13;;;8.35;79.92
29247;BME280;16272;48.188;9.964;2024-03-23T08:33:18;95177.69;;;8.38;79.14
29247;BME280;16272;48.188;9.964;2024-03-23T08:35:53;95172.66;;;8.26;79.03
29247;BME280;16272;48.188;9.964;2024-03-23T08:38:19;95168.56;;;8.14;77.45
29247;BME280;16272;48.188;9.964;2024-03-23T08:40:44;95167.03;;;8.29;78.14
29247;BME280;16272;48.188;9.964;2024-03-23T08:43:09;95151.78;;;8.23;75.10
29247;BME280;16272;48.188;9.964;2024-03-23T08:45:35;95144.63;;;8.16;73.68
29247;BME280;16272;48.188;9.964;2024-03-23T08:48:00;95150.72;;;8.16;73.35
29247;BME280;16272;48.188;9.964;2024-03-23T08:50:25;95163.50;;;8.21;71.78
29247;BME280;16272;48.188;9.964;2024-03-23T08:52:51;95200.75;;;8.27;72.08
29247;BME280;16272;48.188;9.964;2024-03-23T08:55:16;95201.44;;;8.29;72.72
29247;BME280;16272;48.188;9.964;2024-03-23T08:57:41;95201.75;;;8.62;70.40
29247;BME280;16272;48.188;9.964;2024-03-23T09:00:07;95189.75;;;8.76;70.24
29247;BME280;16272;48.188;9.964;2024-03-23T09:02:34;95198.88;;;8.82;70.02
29247;BME280;16272;48.188;9.964;2024-03-23T09:04:59;95184.63;;;8.75;71.62
29247;BME280;16272;48.188;9.964;2024-03-23T09:07:32;95207.41;;;8.68;72.10
29247;BME280;16272;48.188;9.964;2024-03-23T09:09:57;95226.16;;;8.20;73.04
29247;BME280;16272;48.188;9.964;2024-03-23T09:12:23;95249.69;;;8.23;73.55
29247;BME280;16272;48.188;9.964;2024-03-23T09:14:50;95269.44;;;8.01;71.57
29247;BME280;16272;48.188;9.964;2024-03-23T09:17:15;95285.34;;;7.91;72.79
29247;BME280;16272;48.188;9.964;2024-03-23T09:19:41;95290.50;;;7.93;73.63
29247;BME280;16272;48.188;9.964;2024-03-23T09:22:06;95302.78;;;8.12;71.94
29247;BME280;16272;48.188;9.964;2024-03-23T09:24:31;95301.88;;;8.21;71.29
29247;BME280;16272;48.188;9.964;2024-03-23T09:26:57;95285.00;;;8.50;69.43
29247;BME280;16272;48.188;9.964;2024-03-23T09:29:22;95249.69;;;8.77;66.35
29247;BME280;16272;48.188;9.964;2024-03-23T09:31:48;95266.72;;;9.27;66.79
29247;BME280;16272;48.188;9.964;2024-03-23T09:34:13;95271.16;;;9.87;65.17
29247;BME280;16272;48.188;9.964;2024-03-23T09:36:38;95265.63;;;9.72;65.04
29247;BME280;16272;48.188;9.964;2024-03-23T09:39:03;95266.31;;;9.83;63.43
29247;BME280;16272;48.188;9.964;2024-03-23T09:41:30;95268.25;;;9.64;62.33
29247;BME280;16272;48.188;9.964;2024-03-23T09:43:56;95272.06;;;9.70;61.99
29247;BME280;16272;48.188;9.964;2024-03-23T09:46:21;95282.56;;;9.45;59.93
29247;BME280;16272;48.188;9.964;2024-03-23T09:48:47;95271.91;;;9.37;60.97
29247;BME280;16272;48.188;9.964;2024-03-23T09:51:13;95283.13;;;10.00;59.56
29247;BME280;16272;48.188;9.964;2024-03-23T09:53:38;95286.25;;;10.54;59.50
29247;BME280;16272;48.188;9.964;2024-03-23T09:56:04;95267.53;;;10.72;56.78
29247;BME280;16272;48.188;9.964;2024-03-23T09:58:30;95265.09;;;10.20;58.25
29247;BME280;16272;48.188;9.964;2024-03-23T10:00:57;95260.59;;;9.61;57.54
29247;BME280;16272;48.188;9.964;2024-03-23T10:03:22;95245.91;;;9.41;57.45
29247;BME280;16272;48.188;9.964;2024-03-23T10:06:00;95261.06;;;9.56;56.27
29247;BME280;16272;48.188;9.964;2024-03-23T10:08:25;95237.31;;;9.38;55.83
29247;BME280;16272;48.188;9.964;2024-03-23T10:10:51;95253.19;;;9.73;55.27
29247;BME280;16272;48.188;9.964;2024-03-23T10:13:28;95262.41;;;10.03;57.17
29247;BME280;16272;48.188;9.964;2024-03-23T10:15:58;95250.56;;;9.12;59.47
29247;BME280;16272;48.188;9.964;2024-03-23T10:18:25;95266.81;;;8.91;60.61
29247;BME280;16272;48.188;9.964;2024-03-23T10:21:06;95271.69;;;8.78;59.63
29247;BME280;16272;48.188;9.964;2024-03-23T10:23:32;95281.22;;;8.89;56.99
29247;BME280;16272;48.188;9.964;2024-03-23T10:26:17;95306.84;;;8.52;58.63
29247;BME280;16272;48.188;9.964;2024-03-23T10:28:59;95305.22;;;8.23;58.07
29247;BME280;16272;48.188;9.964;2024-03-23T10:31:33;95317.06;;;8.47;58.19
29247;BME280;16272;48.188;9.964;2024-03-23T10:33:59;95320.13;;;8.42;58.56
29247;BME280;16272;48.188;9.964;2024-03-23T10:36:26;95334.38;;;7.86;60.82
29247;BME280;16272;48.188;9.964;2024-03-23T10:38:52;95354.59;;;7.77;61.27
29247;BME280;16272;48.188;9.964;2024-03-23T10:41:18;95365.22;;;7.95;60.74
29247;BME280;16272;48.188;9.964;2024-03-23T10:43:45;95366.66;;;7.42;61.54
29247;BME280;16272;48.188;9.964;2024-03-23T10:46:11;95361.81;;;7.28;61.49
29247;BME280;16272;48.188;9.964;2024-03-23T10:48:36;95334.22;;;7.60;62.78
29247;BME280;16272;48.188;9.964;2024-03-23T10:51:02;95312.78;;;7.63;63.06
29247;BME280;16272;48.188;9.964;2024-03-23T10:53:28;95329.81;;;7.78;62.75
29247;BME280;16272;48.188;9.964;2024-03-23T10:55:55;95373.47;;;7.54;64.54
29247;BME280;16272;48.188;9.964;2024-03-23T10:58:24;95396.22;;;7.65;64.50
29247;BME280;16272;48.188;9.964;2024-03-23T11:00:52;95391.78;;;7.66;65.73
29247;BME280;16272;48.188;9.964;2024-03-23T11:03:38;95390.13;;;7.65;65.19
29247;BME280;16272;48.188;9.964;2024-03-23T11:06:05;95377.81;;;7.83;63.04
29247;BME280;16272;48.188;9.964;2024-03-23T11:08:35;95374.31;;;8.20;63.16
29247;BME280;16272;48.188;9.964;2024-03-23T11:11:17;95372.06;;;9.07;61.85
29247;BME280;16272;48.188;9.964;2024-03-23T11:13:43;95361.44;;;9.25;61.27
29247;BME280;16272;48.188;9.964;2024-03-23T11:16:16;95363.03;;;9.18;58.75
29247;BME280;16272;48.188;9.964;2024-03-23T11:18:42;95363.44;;;9.05;58.78
29247;BME280;16272;48.188;9.964;2024-03-23T11:21:08;95348.59;;;9.65;57.49
29247;BME280;16272;48.188;9.964;2024-03-23T11:23:34;95355.28;;;9.77;57.22
29247;BME280;16272;48.188;9.964;2024-03-23T11:25:59;95348.66;;;9.47;58.44
29247;BME280;16272;48.188;9.964;2024-03-23T11:28:25;95342.47;;;9.64;60.79
29247;BME280;16272;48.188;9.964;2024-03-23T11:30:50;95342.78;;;9.61;58.30
29247;BME280;16272;48.188;9.964;2024-03-23T11:33:15;95345.56;;;9.86;58.80
29247;BME280;16272;48.188;9.964;2024-03-23T11:35:41;95334.19;;;10.02;56.27
29247;BME280;16272;48.188;9.964;2024-03-23T11:38:16;95327.78;;;9.78;57.73
29247;BME280;16272;48.188;9.964;2024-03-23T11:40:53;95324.25;;;10.38;54.31
29247;BME280;16272;48.188;9.964;2024-03-23T11:43:20;95317.31;;;9.68;54.78
29247;BME280;16272;48.188;9.964;2024-03-23T11:45:50;95328.47;;;9.01;55.40
29247;BME280;16272;48.188;9.964;2024-03-23T11:48:21;95326.59;;;8.94;56.61
29247;BME280;16272;48.188;9.964;2024-03-23T11:50:48;95318.47;;;9.13;55.33
29247;BME280;16272;48.188;9.964;2024-03-23T11:53:21;95300.38;;;9.61;54.27
29247;BME280;16272;48.188;9.964;2024-03-23T11:55:55;95299.75;;;10.69;53.65
29247;BME280;16272;48.188;9.964;2024-03-23T11:58:21;95284.22;;;11.55;52.21
29247;BME280;16272;48.188;9.964;2024-03-23T12:01:00;95283.44;;;11.05;48.99
29247;BME280;16272;48.188;9.964;2024-03-23T12:03:27;95275.06;;;11.49;51.13
29247;BME280;16272;48.188;9.964;2024-03-23T12:05:54;95283.97;;;11.09;48.46
29247;BME280;16272;48.188;9.964;2024-03-23T12:08:25;95282.97;;;10.93;49.66
29247;BME280;16272;48.188;9.964;2024-03-23T12:11:11;95274.69;;;10.04;49.60
29247;BME280;16272;48.188;9.964;2024-03-23T12:13:38;95275.69;;;9.69;49.43
29247;BME280;16272;48.188;9.964;2024-03-23T12:16:10;95241.72;;;9.64;48.71
29247;BME280;16272;48.188;9.964;2024-03-23T12:18:41;95316.28;;;9.61;49.44
29247;BME280;16272;48.188;9.964;2024-03-23T12:21:06;95332.47;;;7.78;54.79
29247;BME280;16272;48.188;9.964;2024-03-23T12:23:32;95345.44;;;7.24;58.23
29247;BME280;16272;48.188;9.964;2024-03-23T12:25:58;95355.78;;;7.93;56.99
29247;BME280;16272;48.188;9.964;2024-03-23T12:28:23;95342.88;;;7.42;57.55
29247;BME280;16272;48.188;9.964;2024-03-23T12:30:48;95349.63;;;7.07;58.12
29247;BME280;16272;48.188;9.964;2024-03-23T12:33:14;95361.53;;;7.31;58.51
29247;BME280;16272;48.188;9.964;2024-03-23T12:35:39;95354.72;;;7.38;58.50
29247;BME280;16272;48.188;9.964;2024-03-23T12:38:04;95361.03;;;8.02;57.58
29247;BME280;16272;48.188;9.964;2024-03-23T12:40:30;95370.16;;;7.80;57.44
29247;BME280;16272;48.188;9.964;2024-03-23T12:42:55;95377.41;;;7.11;58.70
29247;BME280;16272;48.188;9.964;2024-03-23T12:45:24;95375.88;;;7.38;59.32
29247;BME280;16272;48.188;9.964;2024-03-23T12:47:49;95375.06;;;7.65;58.88
29247;BME280;16272;48.188;9.964;2024-03-23T12:50:15;95372.69;;;8.09;59.05
29247;BME280;16272;48.188;9.964;2024-03-23T12:52:40;95363.91;;;7.81;59.20
29247;BME280;16272;48.188;9.964;2024-03-23T12:55:06;95362.22;;;7.80;57.91
29247;BME280;16272;48.188;9.964;2024-03-23T12:57:32;95370.47;;;7.10;60.28
29247;BME280;16272;48.188;9.964;2024-03-23T12:59:58;95373.41;;;6.88;61.20
29247;BME280;16272;48.188;9.964;2024-03-23T13:02:23;95374.09;;;6.90;61.98
29247;BME280;16272;48.188;9.964;2024-03-23T13:04:53;95372.53;;;6.38;61.93
29247;BME280;16272;48.188;9.964;2024-03-23T13:07:19;95400.00;;;6.26;63.48
29247;BME280;16272;48.188;9.964;2024-03-23T13:09:45;95371.13;;;6.34;63.34
29247;BME280;16272;48.188;9.964;2024-03-23T13:12:10;95388.69;;;6.04;64.20
29247;BME280;16272;48.188;9.964;2024-03-23T13:14:37;95366.84;;;7.02;64.38
29247;BME280;16272;48.188;9.964;2024-03-23T13:17:03;95380.16;;;7.29;65.55
29247;BME280;16272;48.188;9.964;2024-03-23T13:19:29;95382.84;;;7.00;67.98
29247;BME280;16272;48.188;9.964;2024-03-23T13:22:00;95391.63;;;7.01;67.02
29247;BME280;16272;48.188;9.964;2024-03-23T13:24:27;95377.16;;;6.85;67.34
29247;BME280;16272;48.188;9.964;2024-03-23T13:26:53;95368.25;;;7.15;66.19
29247;BME280;16272;48.188;9.964;2024-03-23T13:29:19;95377.81;;;7.83;64.77
29247;BME280;16272;48.188;9.964;2024-03-23T13:31:45;95371.63;;;7.55;62.78
29247;BME280;16272;48.188;9.964;2024-03-23T13:34:10;95366.38;;;7.93;63.41
29247;BME280;16272;48.188;9.964;2024-03-23T13:36:36;95356.38;;;7.86;64.43
29247;BME280;16272;48.188;9.964;2024-03-23T13:39:02;95348.25;;;7.98;63.58
29247;BME280;16272;48.188;9.964;2024-03-23T13:41:32;95334.72;;;8.28;59.90
29247;BME280;16272;48.188;9.964;2024-03-23T13:43:57;95330.84;;;8.41;59.08
29247;BME280;16272;48.188;9.964;2024-03-23T13:46:23;95327.94;;;8.80;60.69
29247;BME280;16272;48.188;9.964;2024-03-23T13:48:48;95325.97;;;8.46;58.48
29247;BME280;16272;48.188;9.964;2024-03-23T13:51:13;95331.53;;;8.71;60.37
29247;BME280;16272;48.188;9.964;2024-03-23T13:53:38;95319.53;;;8.03;59.76
29247;BME280;16272;48.188;9.964;2024-03-23T13:56:04;95313.97;;;8.06;58.86
29247;BME280;16272;48.188;9.964;2024-03-23T13:58:30;95313.53;;;8.10;60.43